Stuart, IA (50250)

6:51 PM CDT on July 30, 2016 (GMT -0500)
Sw Stuart | | Change Station

Elev 1220 ft 41.50 °N, 94.33 °W | Updated 14 minutes ago

Scattered Clouds
Scattered Clouds
80.2 °F
Feels Like 82 °F
N
3.7
Wind Variable Wind from South

Today
High -- | Low -- °F
--% Chance of Precip.
Yesterday
High -- | Low -- °F
Precip. -- in
Pressure 29.97 in
Visibility 10.0 miles
Clouds Scattered Clouds 3600 ft
Heat Index 82 °F
Dew Point 66 °F
Humidity 61%
Rainfall 0.00 in
Snow Depth Not available.
6:10 AM 8:36 PM
Waning Crescent, 10% visible
METAR KPRO 302335Z AUTO 13004KT 10SM SCT036 27/20 A2997 RMK AO2 T02660198
Pressure 29.97 in
Visibility 10.0 miles
Clouds Scattered Clouds 3600 ft
Heat Index 82 °F
Dew Point 66 °F
Humidity 61%
Rainfall 0.00 in
Snow Depth Not available.
6:10 AM 8:36 PM
Waning Crescent, 10% visible
METAR KPRO 302335Z AUTO 13004KT 10SM SCT036 27/20 A2997 RMK AO2 T02660198

10-Day Weather Forecast

Almanac

Astronomy

Jul. 30, 2016 Rise Set
Actual Time
Civil Twilight
Nautical Twilight
Astronomical Twilight
Moon
Length of Visible Light
Length of Day
Tomorrow will be .
, % of the Moon is Illuminated

Today's Extremes

State Highs State Lows

Community

WunderPhotos

Upload Photos

1,928,680 photos uploaded!

WunderBlog® & News

Nearby

Air Quality

  Air Quality AQ Index Pollutant
Not available.

Snow Depth

Station Depth Elevation

Earthquake Activity

City Distance Mag. Time & Date
Minimum magnitude displayed is 2.5.

Coastal Water Temperatures

Place Temperature

Stations

Nearby Weather Stations

Station Location Temp. Windchill Dew Point Humidity Wind Precip. Elev Updated Type
                   

Watches & Warnings

There are currently no watches in effect.